createdAt,value
2023-01-29T00:00:13.774Z,11.63
2023-01-29T00:02:40.455Z,11.45
2023-01-29T00:05:25.829Z,11.42
2023-01-29T00:07:53.018Z,11.14
2023-01-29T00:10:19.671Z,11.28
2023-01-29T00:12:46.248Z,11.29
2023-01-29T00:15:12.871Z,11.23
2023-01-29T00:17:39.420Z,11.18
2023-01-29T00:20:06.251Z,10.53
2023-01-29T00:22:32.893Z,11.02
2023-01-29T00:24:59.422Z,11.53
2023-01-29T00:27:25.973Z,12.06
2023-01-29T00:30:09.064Z,12.49
2023-01-29T00:32:36.072Z,12.70
2023-01-29T00:35:02.977Z,13.46
2023-01-29T00:37:29.804Z,14.12
2023-01-29T00:39:56.860Z,13.80
2023-01-29T00:42:42.034Z,14.27
2023-01-29T00:45:08.869Z,14.09
2023-01-29T00:47:35.467Z,14.63
2023-01-29T00:50:10.176Z,14.08
2023-01-29T00:52:36.976Z,14.41
2023-01-29T00:55:05.335Z,14.62
2023-01-29T00:57:33.650Z,14.79
2023-01-29T01:00:00.703Z,14.29
2023-01-29T01:02:46.933Z,14.24
2023-01-29T01:05:18.056Z,14.52
2023-01-29T01:07:46.311Z,13.91
2023-01-29T01:10:20.925Z,14.02
2023-01-29T01:13:07.748Z,14.45
2023-01-29T01:15:35.552Z,14.45
2023-01-29T01:18:03.361Z,13.78
2023-01-29T01:20:31.024Z,14.20
2023-01-29T01:22:57.657Z,14.30
2023-01-29T01:25:25.448Z,15.11
2023-01-29T01:27:53.396Z,15.67
2023-01-29T01:30:20.128Z,15.78
2023-01-29T01:32:46.710Z,15.80
2023-01-29T01:35:14.884Z,15.69
2023-01-29T01:37:41.919Z,16.18
2023-01-29T01:40:18.405Z,16.75
2023-01-29T01:42:48.187Z,16.29
2023-01-29T01:45:18.905Z,16.67
2023-01-29T01:47:49.877Z,16.82
2023-01-29T01:50:21.185Z,17.10
2023-01-29T01:52:52.440Z,17.37
2023-01-29T01:55:23.172Z,17.28
2023-01-29T01:57:54.048Z,17.31
2023-01-29T02:00:22.088Z,17.65
2023-01-29T02:03:07.376Z,17.53
2023-01-29T02:05:55.472Z,17.63
2023-01-29T02:08:50.495Z,17.32
2023-01-29T02:11:18.095Z,18.17
2023-01-29T02:13:44.792Z,17.33
2023-01-29T02:16:11.543Z,18.26
2023-01-29T02:18:39.439Z,18.45
2023-01-29T02:21:25.496Z,18.39
2023-01-29T02:24:12.363Z,18.85
2023-01-29T02:26:39.050Z,18.74
2023-01-29T02:29:33.714Z,18.63
2023-01-29T02:32:12.687Z,18.34
2023-01-29T02:35:10.243Z,19.04
2023-01-29T02:37:47.158Z,18.93
2023-01-29T02:40:20.933Z,19.38
2023-01-29T02:42:54.018Z,18.84
2023-01-29T02:45:40.668Z,19.23
2023-01-29T02:48:11.747Z,19.83
2023-01-29T02:50:45.371Z,19.96
2023-01-29T02:53:26.881Z,18.97
2023-01-29T02:55:57.272Z,20.18
2023-01-29T02:58:31.418Z,20.34
2023-01-29T03:01:02.031Z,20.41
2023-01-29T03:03:39.698Z,20.65
2023-01-29T03:06:12.152Z,20.30
2023-01-29T03:08:45.517Z,20.57
2023-01-29T03:11:14.228Z,21.09
2023-01-29T03:14:00.066Z,21.49
2023-01-29T03:16:32.802Z,21.78
2023-01-29T03:19:11.038Z,20.67
2023-01-29T03:21:59.743Z,21.65
2023-01-29T03:24:53.380Z,21.66
2023-01-29T03:27:42.656Z,21.24
2023-01-29T03:30:30.409Z,21.70
2023-01-29T03:33:00.304Z,21.92
2023-01-29T03:35:36.886Z,22.22
2023-01-29T03:38:06.166Z,21.17
2023-01-29T03:40:48.287Z,21.07
2023-01-29T03:43:22.288Z,21.24
2023-01-29T03:46:01.474Z,21.74
2023-01-29T03:48:31.140Z,21.84
2023-01-29T03:51:08.596Z,21.68
2023-01-29T03:53:45.995Z,22.89
2023-01-29T03:56:12.724Z,22.35
2023-01-29T03:58:45.339Z,22.55
2023-01-29T04:01:21.016Z,22.55
2023-01-29T04:03:47.758Z,23.50
2023-01-29T04:06:20.668Z,23.23
2023-01-29T04:09:16.644Z,23.99
2023-01-29T04:11:48.868Z,23.67
2023-01-29T04:14:17.084Z,23.60
2023-01-29T04:16:48.654Z,23.81
2023-01-29T04:19:15.573Z,24.74
2023-01-29T04:21:43.242Z,24.08
2023-01-29T04:24:12.454Z,23.68
2023-01-29T04:26:39.041Z,24.18
2023-01-29T04:29:30.961Z,24.13
2023-01-29T04:31:57.739Z,24.27
2023-01-29T04:34:24.291Z,25.16
2023-01-29T04:36:50.921Z,23.79
2023-01-29T04:39:21.112Z,24.00
2023-01-29T04:42:07.510Z,24.07
2023-01-29T04:44:45.002Z,23.71
2023-01-29T04:47:27.120Z,24.76
2023-01-29T04:50:03.228Z,24.96
2023-01-29T04:52:40.562Z,24.34
2023-01-29T04:55:07.403Z,25.31
2023-01-29T04:57:46.933Z,24.93
2023-01-29T05:00:19.409Z,24.84
2023-01-29T05:02:46.691Z,25.22
2023-01-29T05:05:16.353Z,25.51
2023-01-29T05:07:44.221Z,25.35
2023-01-29T05:10:12.982Z,24.69
2023-01-29T05:12:41.507Z,24.31
2023-01-29T05:15:12.635Z,24.14
2023-01-29T05:17:39.289Z,24.07
2023-01-29T05:20:06.343Z,24.37
2023-01-29T05:22:32.979Z,24.76
2023-01-29T05:24:59.743Z,24.30
2023-01-29T05:27:55.148Z,24.47
2023-01-29T05:30:21.825Z,24.51
2023-01-29T05:32:48.380Z,23.80
2023-01-29T05:35:15.102Z,23.99
2023-01-29T05:37:41.659Z,24.83
2023-01-29T05:40:09.663Z,24.44
2023-01-29T05:42:36.584Z,24.61
2023-01-29T05:45:03.452Z,24.94
2023-01-29T05:47:29.995Z,24.79
2023-01-29T05:49:56.508Z,24.62
2023-01-29T05:52:23.397Z,24.51
2023-01-29T05:54:49.989Z,24.79
2023-01-29T05:57:16.749Z,24.92
2023-01-29T05:59:43.347Z,24.75
2023-01-29T06:02:09.890Z,24.84
2023-01-29T06:04:36.870Z,25.00
2023-01-29T06:07:04.851Z,25.82
2023-01-29T06:09:31.638Z,25.08
2023-01-29T06:11:58.282Z,26.03
2023-01-29T06:14:24.834Z,25.87
2023-01-29T06:16:51.571Z,25.78
2023-01-29T06:19:18.335Z,25.61
2023-01-29T06:21:44.904Z,25.50
2023-01-29T06:24:11.600Z,25.17
2023-01-29T06:26:38.204Z,25.25
2023-01-29T06:29:04.736Z,25.66
2023-01-29T06:31:39.847Z,26.25
2023-01-29T06:34:09.930Z,25.96
2023-01-29T06:36:36.528Z,26.16
2023-01-29T06:39:03.961Z,26.20
2023-01-29T06:41:30.607Z,26.00
2023-01-29T06:43:57.288Z,25.66
2023-01-29T06:46:23.845Z,26.57
2023-01-29T06:48:50.747Z,26.57
2023-01-29T06:51:17.451Z,27.30
2023-01-29T06:53:46.279Z,27.18
2023-01-29T06:56:13.442Z,27.01
2023-01-29T06:58:40.166Z,27.64
2023-01-29T07:01:08.295Z,28.35
2023-01-29T07:03:35.232Z,27.65
2023-01-29T07:06:02.019Z,27.89
2023-01-29T07:08:28.711Z,29.04
2023-01-29T07:11:00.049Z,29.02
2023-01-29T07:13:27.261Z,29.04
2023-01-29T07:15:54.205Z,29.34
2023-01-29T07:18:20.754Z,29.33
2023-01-29T07:20:47.339Z,29.63
2023-01-29T07:23:14.570Z,28.77
2023-01-29T07:25:41.530Z,29.39
2023-01-29T07:28:08.418Z,28.79
2023-01-29T07:30:35.505Z,29.99
2023-01-29T07:33:07.498Z,30.60
2023-01-29T07:35:38.581Z,29.97
2023-01-29T07:38:05.204Z,29.97
2023-01-29T07:40:31.762Z,30.21
2023-01-29T07:43:02.471Z,29.41
2023-01-29T07:45:29.757Z,29.95
2023-01-29T07:47:57.487Z,29.89
2023-01-29T07:50:24.805Z,29.74
2023-01-29T07:52:51.706Z,29.18
2023-01-29T07:55:18.360Z,28.91
2023-01-29T07:57:45.914Z,28.55
2023-01-29T08:00:13.752Z,29.10
2023-01-29T08:02:43.149Z,29.26
2023-01-29T08:05:09.740Z,28.47
2023-01-29T08:07:36.286Z,28.94
2023-01-29T08:10:02.898Z,28.53
2023-01-29T08:12:29.599Z,28.08
2023-01-29T08:14:56.621Z,28.45
2023-01-29T08:17:23.310Z,28.51
2023-01-29T08:19:50.026Z,28.76
2023-01-29T08:22:16.952Z,30.27
2023-01-29T08:24:53.719Z,28.64
2023-01-29T08:27:27.009Z,29.31
2023-01-29T08:29:54.105Z,29.22
2023-01-29T08:32:20.635Z,28.76
2023-01-29T08:34:47.270Z,29.01
2023-01-29T08:37:13.908Z,28.27
2023-01-29T08:42:07.109Z,29.46
2023-01-29T08:44:33.794Z,29.21
2023-01-29T08:47:01.112Z,29.61
2023-01-29T08:49:27.620Z,29.93
2023-01-29T08:51:57.025Z,29.49
2023-01-29T08:54:23.970Z,29.75
2023-01-29T08:56:51.634Z,30.91
2023-01-29T08:59:19.093Z,30.24
2023-01-29T09:01:45.718Z,30.36
2023-01-29T09:04:12.259Z,29.76
2023-01-29T09:06:38.773Z,30.24
2023-01-29T09:09:05.412Z,31.48
2023-01-29T09:11:32.034Z,31.15
2023-01-29T09:13:58.591Z,31.57
2023-01-29T09:16:25.189Z,31.36
2023-01-29T09:18:53.051Z,30.87
2023-01-29T09:21:19.718Z,31.24
2023-01-29T09:23:46.322Z,30.83
2023-01-29T09:26:12.929Z,30.58
2023-01-29T09:28:39.546Z,31.69
2023-01-29T09:31:06.294Z,32.07
2023-01-29T09:33:33.253Z,31.88
2023-01-29T09:35:59.877Z,31.88
2023-01-29T09:38:26.592Z,31.19
2023-01-29T09:40:53.546Z,31.58
2023-01-29T09:43:28.489Z,32.22
2023-01-29T09:46:02.025Z,31.30
2023-01-29T09:48:32.709Z,31.65
2023-01-29T09:51:03.738Z,32.52
2023-01-29T09:53:30.317Z,31.52
2023-01-29T09:56:06.112Z,31.66
2023-01-29T09:58:35.884Z,32.28
2023-01-29T10:01:14.914Z,33.02
2023-01-29T10:03:55.189Z,32.61
2023-01-29T10:06:27.819Z,32.79
2023-01-29T10:09:20.780Z,32.20
2023-01-29T10:12:02.356Z,32.42
2023-01-29T10:14:48.288Z,32.51
2023-01-29T10:17:14.974Z,32.27
2023-01-29T10:19:47.659Z,32.58
2023-01-29T10:22:23.565Z,32.15
2023-01-29T10:24:50.168Z,32.47
2023-01-29T10:27:18.077Z,32.76
2023-01-29T10:29:48.363Z,33.01
2023-01-29T10:32:18.094Z,32.59
2023-01-29T10:34:55.682Z,32.29
2023-01-29T10:37:31.183Z,33.13
2023-01-29T10:40:00.101Z,33.50
2023-01-29T10:42:32.196Z,33.32
2023-01-29T10:45:17.591Z,32.50
2023-01-29T10:48:04.892Z,32.74
2023-01-29T10:50:46.552Z,33.20
2023-01-29T10:53:13.078Z,33.46
2023-01-29T10:55:49.325Z,32.32
2023-01-29T10:58:38.541Z,32.67
2023-01-29T11:01:05.163Z,32.82
2023-01-29T11:22:23.865Z,34.23
2023-01-29T11:25:08.262Z,34.14
2023-01-29T11:27:41.307Z,34.17
2023-01-29T11:30:16.007Z,34.10
2023-01-29T11:32:43.468Z,35.29
2023-01-29T11:35:09.920Z,35.03
2023-01-29T11:37:38.230Z,34.67
2023-01-29T11:40:20.382Z,34.28
2023-01-29T11:42:47.333Z,35.28
2023-01-29T11:45:34.942Z,35.58
2023-01-29T11:48:01.891Z,35.75
2023-01-29T11:50:31.116Z,36.31
2023-01-29T11:53:01.634Z,37.87
2023-01-29T11:55:48.170Z,45.18
2023-01-29T11:58:26.760Z,46.98
2023-01-29T12:00:55.619Z,38.20
2023-01-29T12:03:32.694Z,38.29
2023-01-29T12:05:59.389Z,38.55
2023-01-29T12:08:31.929Z,37.80
2023-01-29T12:11:08.632Z,37.90
2023-01-29T12:13:36.258Z,36.81
2023-01-29T12:16:14.466Z,38.09
2023-01-29T12:18:47.976Z,39.09
2023-01-29T12:21:14.619Z,39.26
2023-01-29T12:23:54.225Z,38.06
2023-01-29T12:26:30.004Z,38.87
2023-01-29T12:29:02.377Z,38.41
2023-01-29T12:31:48.911Z,38.93
2023-01-29T12:34:35.956Z,39.28
2023-01-29T12:37:18.596Z,39.00
2023-01-29T12:39:45.445Z,39.26
2023-01-29T12:42:11.902Z,39.74
2023-01-29T12:44:43.764Z,39.68
2023-01-29T12:47:25.030Z,40.96
2023-01-29T12:49:55.064Z,40.85
2023-01-29T12:52:32.259Z,41.26
2023-01-29T12:55:03.284Z,41.49
2023-01-29T12:57:41.266Z,41.30
2023-01-29T13:00:19.582Z,41.86
2023-01-29T13:03:05.221Z,41.20
2023-01-29T13:05:39.262Z,40.53
2023-01-29T13:08:17.308Z,47.75
2023-01-29T13:10:47.755Z,42.35
2023-01-29T13:13:24.581Z,41.65
2023-01-29T13:15:52.761Z,42.46
2023-01-29T13:18:19.326Z,42.34
2023-01-29T13:20:48.299Z,42.05
2023-01-29T13:23:21.783Z,41.53
2023-01-29T13:25:52.474Z,41.24
2023-01-29T13:28:20.948Z,41.71
2023-01-29T13:30:47.784Z,40.44
2023-01-29T13:33:24.000Z,40.19
2023-01-29T13:35:59.069Z,40.35
2023-01-29T13:38:28.436Z,39.52
2023-01-29T13:41:01.975Z,38.45
2023-01-29T13:43:34.430Z,39.08
2023-01-29T13:46:07.817Z,37.20
2023-01-29T13:48:36.969Z,37.10
2023-01-29T13:51:15.627Z,37.56
2023-01-29T13:53:43.285Z,37.19
2023-01-29T13:56:51.632Z,36.81
2023-01-29T13:59:23.081Z,36.39
2023-01-29T14:01:49.582Z,36.80
2023-01-29T14:04:19.329Z,36.30
2023-01-29T14:06:47.864Z,35.44
2023-01-29T14:09:31.670Z,35.47
2023-01-29T14:11:59.094Z,35.43
2023-01-29T14:14:44.562Z,34.79
2023-01-29T14:17:12.117Z,34.92
2023-01-29T14:19:46.432Z,35.76
2023-01-29T14:22:27.272Z,36.08
2023-01-29T14:24:55.979Z,35.61
2023-01-29T14:27:44.537Z,35.26
2023-01-29T14:40:06.778Z,33.39
2023-01-29T14:46:03.181Z,34.53
2023-01-29T14:52:11.539Z,33.91
2023-01-29T14:57:43.919Z,33.84
2023-01-29T15:00:38.215Z,34.57
2023-01-29T15:06:33.145Z,32.59
2023-01-29T15:12:41.355Z,33.04
2023-01-29T15:18:25.317Z,32.41
2023-01-29T15:27:09.669Z,30.68
2023-01-29T15:39:33.891Z,32.23
2023-01-29T15:45:41.552Z,30.59
2023-01-29T15:51:36.009Z,30.68
2023-01-29T16:00:51.321Z,30.23
2023-01-29T16:03:39.804Z,30.30
2023-01-29T16:09:38.922Z,30.70
2023-01-29T16:14:57.750Z,29.03
2023-01-29T16:17:43.033Z,29.96
2023-01-29T16:23:54.131Z,28.43
2023-01-29T16:26:40.958Z,28.30
2023-01-29T16:29:19.144Z,28.95
2023-01-29T16:32:05.985Z,28.74
2023-01-29T16:43:49.890Z,30.39
2023-01-29T16:52:51.754Z,29.92
2023-01-29T16:55:24.067Z,30.04
2023-01-29T16:58:09.512Z,30.79
2023-01-29T17:00:36.513Z,30.57
2023-01-29T17:03:07.517Z,30.31
2023-01-29T17:05:36.847Z,31.33
2023-01-29T17:08:04.764Z,31.21
2023-01-29T17:10:33.082Z,30.08
2023-01-29T17:13:05.552Z,30.27
2023-01-29T17:15:46.138Z,31.09
2023-01-29T17:18:15.573Z,28.85
2023-01-29T17:20:42.111Z,29.90
2023-01-29T17:23:08.905Z,30.49
2023-01-29T17:25:36.099Z,30.63
2023-01-29T17:28:03.255Z,30.91
2023-01-29T17:30:37.142Z,31.73
2023-01-29T17:33:14.264Z,31.01
2023-01-29T17:35:42.359Z,38.88
2023-01-29T17:38:24.223Z,41.52
2023-01-29T17:40:51.779Z,36.76
2023-01-29T17:43:18.359Z,30.02
2023-01-29T17:45:45.014Z,30.37
2023-01-29T17:48:14.238Z,30.20
2023-01-29T17:50:44.469Z,31.11
2023-01-29T17:53:11.027Z,30.59
2023-01-29T17:55:37.733Z,30.05
2023-01-29T17:58:04.262Z,31.24
2023-01-29T18:00:30.814Z,32.65
2023-01-29T18:02:58.149Z,30.99
2023-01-29T18:05:24.869Z,32.50
2023-01-29T18:07:52.407Z,31.88
2023-01-29T18:10:21.059Z,32.43
2023-01-29T18:12:47.904Z,33.21
2023-01-29T18:15:14.648Z,32.00
2023-01-29T18:17:42.145Z,30.88
2023-01-29T18:20:23.641Z,31.22
2023-01-29T18:22:50.675Z,30.98
2023-01-29T18:25:17.697Z,32.40
2023-01-29T18:27:44.980Z,32.19
2023-01-29T18:30:13.402Z,31.49
2023-01-29T18:32:39.932Z,31.83
2023-01-29T18:35:08.052Z,32.60
2023-01-29T18:37:34.679Z,32.57
2023-01-29T18:40:01.290Z,31.91
2023-01-29T18:42:30.689Z,32.18
2023-01-29T18:44:57.272Z,31.51
2023-01-29T18:47:24.515Z,31.50
2023-01-29T18:49:52.167Z,31.57
2023-01-29T18:52:18.808Z,31.64
2023-01-29T18:54:45.449Z,32.70
2023-01-29T18:57:14.633Z,32.10
2023-01-29T18:59:41.664Z,32.13
2023-01-29T19:02:10.632Z,31.99
2023-01-29T19:04:37.209Z,31.57
2023-01-29T19:07:04.900Z,32.53
2023-01-29T19:09:31.478Z,32.72
2023-01-29T19:11:58.116Z,32.11
2023-01-29T19:14:24.692Z,32.55
2023-01-29T19:16:51.309Z,33.11
2023-01-29T19:19:17.931Z,34.27
2023-01-29T19:21:44.680Z,33.98
2023-01-29T19:24:12.027Z,34.39
2023-01-29T19:26:38.581Z,33.21
2023-01-29T19:29:09.664Z,33.14
2023-01-29T19:31:36.411Z,33.00
2023-01-29T19:34:03.180Z,32.00
2023-01-29T19:36:29.923Z,32.21
2023-01-29T19:38:56.561Z,32.00
2023-01-29T19:41:23.222Z,32.06
2023-01-29T19:43:49.979Z,30.79
2023-01-29T19:46:17.390Z,31.39
2023-01-29T19:48:43.934Z,31.23
2023-01-29T19:51:10.879Z,30.54
2023-01-29T19:53:38.640Z,29.82
2023-01-29T19:56:07.209Z,30.02
2023-01-29T19:58:34.663Z,30.00
2023-01-29T20:01:04.067Z,29.21
2023-01-29T20:03:30.813Z,29.07
2023-01-29T20:06:05.243Z,28.80
2023-01-29T20:08:32.336Z,28.70
2023-01-29T20:10:59.227Z,28.41
2023-01-29T20:13:26.175Z,27.79
2023-01-29T20:15:52.940Z,26.11
2023-01-29T20:18:19.826Z,26.08
2023-01-29T20:20:48.552Z,25.61
2023-01-29T20:23:25.034Z,25.22
2023-01-29T20:26:02.502Z,23.94
2023-01-29T20:28:29.451Z,23.89
2023-01-29T20:30:58.051Z,23.72
2023-01-29T20:33:26.333Z,24.22
2023-01-29T20:35:54.518Z,23.38
2023-01-29T20:38:21.115Z,23.35
2023-01-29T20:40:47.858Z,23.86
2023-01-29T20:43:14.522Z,23.23
2023-01-29T20:45:41.171Z,22.98
2023-01-29T20:48:08.139Z,23.87
2023-01-29T20:50:35.333Z,22.69
2023-01-29T20:53:01.967Z,22.94
2023-01-29T20:55:28.630Z,23.55
2023-01-29T20:58:05.898Z,22.70
2023-01-29T21:00:33.332Z,22.42
2023-01-29T21:03:00.084Z,22.69
2023-01-29T21:05:26.880Z,22.46
2023-01-29T21:07:53.568Z,22.93
2023-01-29T21:10:20.246Z,22.56
2023-01-29T21:12:47.075Z,22.91
2023-01-29T21:15:13.906Z,22.84
2023-01-29T21:17:40.634Z,22.26
2023-01-29T21:20:08.382Z,21.71
2023-01-29T21:22:35.166Z,21.23
2023-01-29T21:25:01.792Z,21.27
2023-01-29T21:27:30.009Z,20.93
2023-01-29T21:29:57.306Z,20.22
2023-01-29T21:32:23.937Z,18.55
2023-01-29T21:34:52.642Z,15.34
2023-01-29T21:37:19.644Z,15.36
2023-01-29T21:39:46.232Z,14.33
2023-01-29T21:42:31.430Z,12.79
2023-01-29T21:44:58.322Z,8.92
2023-01-29T21:47:24.859Z,8.19
2023-01-29T21:49:51.427Z,6.83
2023-01-29T21:52:17.947Z,6.69
2023-01-29T21:54:48.991Z,6.77
2023-01-29T21:57:16.485Z,6.65
2023-01-29T21:59:43.800Z,6.78
2023-01-29T22:02:17.395Z,6.60
2023-01-29T22:04:44.197Z,6.82
2023-01-29T22:07:11.858Z,6.55
2023-01-29T22:09:38.419Z,6.54
2023-01-29T22:12:08.234Z,6.36
2023-01-29T22:14:34.892Z,6.30
2023-01-29T22:17:01.623Z,6.50
2023-01-29T22:19:29.415Z,6.58
2023-01-29T22:21:56.735Z,6.29
2023-01-29T22:24:23.537Z,6.26
2023-01-29T22:26:50.257Z,6.40
2023-01-29T22:29:17.467Z,6.49
2023-01-29T22:31:44.616Z,6.36
2023-01-29T22:34:12.288Z,6.16
2023-01-29T22:36:39.685Z,6.42
2023-01-29T22:39:08.230Z,6.14
2023-01-29T22:41:34.970Z,6.13
2023-01-29T22:44:01.793Z,6.19
2023-01-29T22:46:28.469Z,6.30
2023-01-29T22:48:55.068Z,6.19
2023-01-29T22:51:21.612Z,6.76
2023-01-29T22:53:52.963Z,6.53
2023-01-29T22:56:21.533Z,6.58
2023-01-29T22:58:52.285Z,6.85
2023-01-29T23:01:20.372Z,6.65
2023-01-29T23:03:47.543Z,6.60
2023-01-29T23:06:15.043Z,6.72
2023-01-29T23:08:41.588Z,6.67
2023-01-29T23:11:15.385Z,6.66
2023-01-29T23:13:42.849Z,7.04
2023-01-29T23:16:09.901Z,7.40
2023-01-29T23:18:36.529Z,7.09
2023-01-29T23:21:04.357Z,7.10
2023-01-29T23:23:32.082Z,7.16
2023-01-29T23:26:18.919Z,7.39
2023-01-29T23:28:45.540Z,6.70
2023-01-29T23:31:12.509Z,7.10
2023-01-29T23:33:39.141Z,7.11
2023-01-29T23:36:06.745Z,7.30
2023-01-29T23:38:33.421Z,7.70
2023-01-29T23:41:00.160Z,7.28
2023-01-29T23:43:28.013Z,7.82
2023-01-29T23:45:55.105Z,7.62
2023-01-29T23:48:22.161Z,7.57
2023-01-29T23:50:49.537Z,7.46
2023-01-29T23:53:16.530Z,7.83
2023-01-29T23:55:44.565Z,7.18
2023-01-29T23:58:11.125Z,7.43
